Maria Desgagnes — VCWL — position and weather

sailwx.info

Track history (hours):
 
Tides and Currents Weather Stations Pressure Air Temp Water Temp Dewpoint Dewpoint Depression Visibility Wind Speed Wind Dir Waves Ship Positions

Maria Desgagnes

Last reported at 2015-May-25 03:06 UTC. Time now 2015-May-30 06:37 UTC.
Position N 46°27' W 072°16'.

Length 120 m; draft 7.1 m.

Type: Ship. MMSI: 316285000.

Date/timePositionNaut miles runAvg speedWind from/ knotsBaromVisibWave heightAir tempDewpointWater temp
2015-May-25 03:06N 46°27' W 072°16'815.0
2015-May-25 02:33N 46°23' W 072°26'1211.8
2015-May-25 01:33N 46°16' W 072°39'1311.4
2015-May-25 00:27N 46°10' W 072°56'54 7.7
2015-May-24 17:33N 45°24' W 073°36'6 6.4
2015-May-24 16:33N 45°24' W 073°45'10 4.8
2015-May-24 14:25N 45°18' W 073°56'122 5.8
2015-May-23 17:34N 44°11' W 076°19'1 0.7
2015-May-23 16:34N 44°10' W 076°19'  
2015-May-18 23:34N 44°11' W 076°19'0 0.1
2015-May-18 22:34N 44°11' W 076°19'0 0.5
2015-May-18 21:34N 44°11' W 076°19'122 3.2
2015-May-17 07:33N 45°18' W 073°56'1 0.9
2015-May-17 06:32N 45°19' W 073°55'3 2.7
2015-May-17 05:33N 45°21' W 073°52'9 8.8
2015-May-17 04:29N 45°25' W 073°40'  
Track history (hours):
 
Tides and Currents Weather Stations Pressure Air Temp Water Temp Dewpoint Dewpoint Depression Visibility Wind Speed Wind Dir Waves Ship Positions

Maria Desgagnes

Last reported at 2015-May-25 03:06 UTC. Time now 2015-May-30 06:37 UTC.
Position N 46°27' W 072°16'.

Length 120 m; draft 7.1 m.

Type: Ship. MMSI: 316285000.

Date/timePositionNaut miles runAvg speedWind from/ knotsBaromVisibWave heightAir tempDewpointWater temp
2015-May-25 03:06N 46°27' W 072°16'815.0
2015-May-25 02:33N 46°23' W 072°26'1211.8
2015-May-25 01:33N 46°16' W 072°39'1311.4
2015-May-25 00:27N 46°10' W 072°56'54 7.7
2015-May-24 17:33N 45°24' W 073°36'6 6.4
2015-May-24 16:33N 45°24' W 073°45'10 4.8
2015-May-24 14:25N 45°18' W 073°56'122 5.8
2015-May-23 17:34N 44°11' W 076°19'1 0.7
2015-May-23 16:34N 44°10' W 076°19'  
2015-May-18 23:34N 44°11' W 076°19'0 0.1
2015-May-18 22:34N 44°11' W 076°19'0 0.5
2015-May-18 21:34N 44°11' W 076°19'122 3.2
2015-May-17 07:33N 45°18' W 073°56'1 0.9
2015-May-17 06:32N 45°19' W 073°55'3 2.7
2015-May-17 05:33N 45°21' W 073°52'9 8.8
2015-May-17 04:29N 45°25' W 073°40'  

Dump ship's entire track history